Tiempo atmosférico en la estación meteorológica de Bunyola, Sierra de Alfabia, Illes Balears (1030 m.)



Fecha
DESCASC
Temp. máxima en grados centígrados (hora)
DESCASC
Temp. mínima en grados centígrados (hora)
DESCASC
Temp. media en grados centígrados
DESCASC
Racha de viento máxima en m/sg (hora)
DESCASC
Velocidad máxima media en intervalos de 10 minutos(hora)
DESCASC
Precipitaciones diarias en mm
DESCASC
Precipitaciones de 00:00 a 06:00 en mm
DESCASC
Precipitaciones de 06:00 a 12:00 en mm
DESCASC
Precipitaciones de 12:00 a 18:00 en mm
DESCASC
Precipitaciones de 18:00 a 24:00 en mm
DESCASC

Gráficas

Temp. máximas Temp. mínimas Temp. medias Precipitaciones Rachas de viento máximas Velocidades máximas media en intervalos de 10 minutos

Datos horarios

Fecha y hora oficial Temperatura (ºC) Velocidad del viento (km/h) Dirección del viento Racha (km/h) Dirección de racha Precipitación (mm) Presión (hPa) Tendencia (hPa) Humedad (%)
2020-04-01 23:00:00 8.8 16 Sur 28 Sur 0 -- -- 99
2020-04-01 22:00:00 8.7 17 Sur 31 Sur 0 -- -- 99
2020-04-01 21:00:00 8.7 19 Sur 32 Sur 0 -- -- 99
2020-04-01 20:00:00 9 16 Sur 27 Sur 0 -- -- 99
2020-04-01 19:00:00 8.9 16 Sur 28 Sudoeste 0 -- -- 99
2020-04-01 18:00:00 9.4 10 Sur 21 Sudoeste 0.1 -- -- 99
2020-04-01 17:00:00 9.3 11 Sur 26 Sudoeste 0.1 -- -- 99
2020-04-01 16:00:00 9.3 6 Sur 25 Sudeste 0 -- -- 99
2020-04-01 15:00:00 9.8 11 Sur 30 Sur 0 -- -- 99
2020-04-01 14:00:00 9.9 18 Sur 32 Sur 0.1 -- -- 99
2020-04-01 13:00:00 8.3 12 Sudeste 37 Sur 13.4 -- -- 99
2020-04-01 12:00:00 9.5 22 Sur 36 Sudeste 0 -- -- 99
2020-04-01 11:00:00 9.3 23 Sudeste 35 Sudeste 0 -- -- 99
2020-04-01 10:00:00 8.9 20 Sudeste 37 Sudeste 0.1 -- -- 99
2020-04-01 09:00:00 8.5 21 Sur 40 Sudeste 0 -- -- 99
2020-04-01 08:00:00 8.2 31 Sudeste 47 Sur 0 -- -- 99
2020-04-01 07:00:00 8.1 36 Sudeste 55 Sudeste 0.1 -- -- 99
2020-04-01 06:00:00 7.9 38 Sudeste 57 Sur 0 -- -- 99
2020-04-01 05:00:00 7.8 34 Sur 51 Sudeste 0.1 -- -- 99
2020-04-01 04:00:00 7.8 39 Sudeste 59 Sudeste 0.1 -- -- 99
2020-04-01 03:00:00 8.4 34 Sudeste 60 Sur 0.1 -- -- 99
2020-04-01 02:00:00 8.5 38 Sudeste 55 Sudeste 0 -- -- 99
2020-04-01 01:00:00 8.6 35 Sudeste 53 Sudeste 0.1 -- -- 99
2020-04-01 00:00:00 8.5 39 Sudeste 58 Sudeste 0 -- -- 99
2020-03-31 23:00:00 8.4 37 Sudeste 57 Sudeste 0.1 -- -- 99
2020-03-31 22:00:00 8.6 39 Sudeste 57 Sudeste 0 -- -- 99
2020-03-31 21:00:00 8.7 36 Sudeste 60 Sudeste 0 -- -- 99
2020-03-31 20:00:00 8.7 39 Sudeste 63 Sudeste 0 -- -- 99
2020-03-31 19:00:00 8.8 37 Sudeste 58 Sudeste 0 -- -- 99
2020-03-31 18:00:00 8.9 38 Sudeste 55 Sudeste 0 -- -- 99
2020-03-31 17:00:00 9 32 Sudeste 50 Sudeste 0.2 -- -- 99
2020-03-31 16:00:00 8.5 28 Sudeste 48 Sur 1.1 -- -- 99
2020-03-31 15:00:00 8.4 32 Sudeste 54 Sudeste 0 -- -- 99
2020-03-31 14:00:00 8.1 40 Sudeste 60 Sudeste 0 -- -- 99
2020-03-31 13:00:00 7.9 41 Sudeste 68 Sudeste 0.1 -- -- 99
2020-03-31 12:00:00 7.5 44 Sudeste 71 Sudeste 0.1 -- -- 99
2020-03-31 11:00:00 7.5 45 Sudeste 74 Sudeste 0 -- -- 99
2020-03-31 10:00:00 7.3 50 Sudeste 69 Sudeste 0 -- -- 99
2020-03-31 09:00:00 7.2 46 Sudeste 68 Sudeste 0 -- -- 99
2020-03-31 08:00:00 6.7 50 Sudeste 66 Sudeste 0 -- -- 99
2020-03-31 07:00:00 6.6 45 Sudeste 61 Sudeste 0.1 -- -- 99
2020-03-31 06:00:00 6.6 40 Sudeste 55 Sudeste 0 -- -- 99
2020-03-31 05:00:00 6.5 35 Sudeste 47 Sudeste 0.2 -- -- 99
2020-03-31 04:00:00 6.4 27 Sudeste 42 Sudeste 0 -- -- 99
2020-03-31 03:00:00 6.6 27 Sudeste 45 Sudeste 0 -- -- 99
2020-03-31 02:00:00 6.5 30 Sudeste 41 Sur 0 -- -- 99
2020-03-31 01:00:00 6.7 26 Sudeste 40 Sudeste 0 -- -- 99
2020-03-31 00:00:00 7.2 22 Sur 34 Sudeste 0 -- -- 99
2020-03-30 23:00:00 7.2 19 Sur 37 Sur 0 -- -- 99
2020-03-30 22:00:00 7.1 21 Sur 30 Sur 0 -- -- 99
2020-03-30 21:00:00 7.3 22 Sur 28 Sur 0 -- -- 99
2020-03-30 20:00:00 7.7 14 Sur 25 Sur 0 -- -- 99
2020-03-30 19:00:00 8.1 12 Sur 24 Sur 0 -- -- 99
2020-03-30 18:00:00 8.3 6 Sur 23 Sudoeste 0 -- -- 99
2020-03-30 17:00:00 8.2 7 Sur 22 Sur 0 -- -- 99
2020-03-30 16:00:00 8.6 7 Sur 26 Sur 0 -- -- 99
2020-03-30 15:00:00 8.5 11 Sur 28 Sur 0.1 -- -- 99
2020-03-30 14:00:00 8.8 10 Sur 26 Sudoeste 0 -- -- 99
2020-03-30 13:00:00 8.9 13 Sur 27 Sur 0.2 -- -- 99
2020-03-30 12:00:00 8.1 13 Sur 30 Sur 0 -- -- 99
2020-03-30 11:00:00 7.7 20 Sur 31 Sur 0 -- -- 99
2020-03-30 10:00:00 7.5 14 Sur 26 Sur 0 -- -- 99
2020-03-30 09:00:00 7 12 Sur 18 Sur 0 -- -- 99
2020-03-30 08:00:00 6.5 8 Sur 19 Sudoeste 0 -- -- 99
2020-03-30 07:00:00 7.8 13 Sudoeste 23 Oeste 0 -- -- 75
2020-03-30 06:00:00 7.8 12 Sudoeste 20 Oeste 0 -- -- 72
2020-03-30 05:00:00 8.9 13 Oeste 24 Sudoeste 0 -- -- 56
2020-03-30 04:00:00 9.1 15 Sudoeste 27 Sudoeste 0 -- -- 54
2020-03-30 03:00:00 8.2 20 Sudoeste 28 Sudoeste 0 -- -- 57
2020-03-30 02:00:00 8.1 17 Sudoeste 26 Sudoeste 0 -- -- 63
2020-03-30 01:00:00 8 16 Sudoeste 27 Oeste 0 -- -- 68
2020-03-30 00:00:00 9 18 Oeste 27 Oeste 0 -- -- 58
2020-03-29 23:00:00 8.2 18 Sudoeste 27 Sudoeste 0 -- -- 67
2020-03-29 22:00:00 8.6 17 Sudoeste 30 Oeste 0 -- -- 63
2020-03-29 21:00:00 8.5 17 Oeste 28 Oeste 0 -- -- 62
2020-03-29 20:00:00 9.1 9 Oeste 22 Oeste 0 -- -- 59
2020-03-29 19:00:00 10.7 8 Oeste 24 Oeste 0 -- -- 54
2020-03-29 18:00:00 11.7 9 Noroeste 21 Noroeste 0 -- -- 53
2020-03-29 17:00:00 11.3 14 Noroeste 23 Noroeste 0 -- -- 55
2020-03-29 16:00:00 11.5 18 Noroeste 28 Noroeste 0 -- -- 54
2020-03-29 15:00:00 11.7 18 Noroeste 30 Noroeste 0 -- -- 55
2020-03-29 14:00:00 11.9 18 Noroeste 30 Norte 0 -- -- 57
2020-03-29 13:00:00 10.5 15 Noroeste 21 Noroeste 0 -- -- 66
2020-03-29 12:00:00 9.2 12 Noroeste 28 Noroeste 0 -- -- 64
2020-03-29 11:00:00 8.3 19 Noroeste 30 Norte 0 -- -- 68
2020-03-29 10:00:00 8.1 26 Noroeste 33 Noroeste 0 -- -- 65
2020-03-29 09:00:00 7.3 26 Noroeste 32 Noroeste 0 -- -- 70
2020-03-29 08:00:00 6.6 26 Noroeste 32 Noroeste 0 -- -- 72
2020-03-29 07:00:00 6.4 27 Norte 32 Norte 0 -- -- 72
2020-03-29 06:00:00 6.4 27 Noroeste 31 Noroeste 0 -- -- 73
2020-03-29 05:00:00 5.1 27 Noroeste 31 Norte 0 -- -- 89
2020-03-29 03:00:00 7.1 15 Norte 26 Norte 0 -- -- 69
2020-03-29 01:00:00 7.1 14 Nordeste 20 Nordeste 0 -- -- 61
2020-03-29 00:00:00 6.5 8 Nordeste 14 Nordeste 0 -- -- 69
2020-03-28 23:00:00 6.9 13 Nordeste 15 Nordeste 0 -- -- 67
2020-03-28 22:00:00 6.3 6 Norte 14 Nordeste 0 -- -- 84
2020-03-28 21:00:00 6.6 7 Nordeste 20 Nordeste 0 -- -- 85
2020-03-28 20:00:00 7 14 Nordeste 19 Este 0 -- -- 76
2020-03-28 19:00:00 6.7 5 Nordeste 15 Este 0 -- -- 99
2020-03-28 18:00:00 6.7 5 Nordeste 12 Noroeste 0 -- -- 99
2020-03-28 17:00:00 7.3 3 Nordeste 16 Noroeste 0 -- -- 97
2020-03-28 16:00:00 6.4 11 Norte 21 Norte 0 -- -- 99
2020-03-28 15:00:00 7.3 9 Norte 18 Norte 0 -- -- 99
2020-03-28 14:00:00 6.8 8 Norte 18 Norte 0 -- -- 99
2020-03-28 13:00:00 9 7 Este 20 Este 0 -- -- 75
2020-03-28 12:00:00 7.5 10 Este 22 Este 0 -- -- 93
2020-03-28 11:00:00 6.9 8 Este 22 Norte 0.7 -- -- 99
2020-03-28 10:00:00 4.6 17 Norte 36 Noroeste 0.6 -- -- 99
2020-03-28 09:00:00 4.3 26 Noroeste 33 Norte 0 -- -- 99
2020-03-28 08:00:00 3.9 25 Noroeste 37 Norte 0 -- -- 99
2020-03-28 07:00:00 3.9 23 Norte 33 Norte 0 -- -- 99
2020-03-28 06:00:00 3.4 19 Norte 24 Norte 0 -- -- 99
2020-03-28 05:00:00 3.4 13 Norte 21 Nordeste 0 -- -- 99
2020-03-28 04:00:00 3.2 13 Norte 19 Nordeste 0.3 -- -- 99
2020-03-28 03:00:00 3.4 8 Nordeste 16 Nordeste 0 -- -- 99
2020-03-28 02:00:00 2.6 6 Norte 14 Nordeste 0 -- -- 99
2020-03-28 01:00:00 2.5 10 Norte 24 Norte 0 -- -- 99
2020-03-28 00:00:00 2.3 18 Norte 26 Norte 0 -- -- 99
2020-03-27 23:00:00 2.9 19 Noroeste 35 Norte 0 -- -- 99
2020-03-27 22:00:00 3 20 Norte 35 Norte 0 -- -- 99
2020-03-27 21:00:00 2.6 18 Norte 28 Noroeste 0 -- -- 99
2020-03-27 20:00:00 2.8 20 Norte 31 Noroeste 0 -- -- 96
2020-03-27 19:00:00 3.1 19 Noroeste 26 Noroeste 0 -- -- 94
2020-03-27 18:00:00 4 15 Noroeste 22 Noroeste 0 -- -- 90
2020-03-27 17:00:00 4.4 11 Noroeste 25 Noroeste 0 -- -- 84
2020-03-27 16:00:00 5 18 Noroeste 27 Noroeste 0 -- -- 79
2020-03-27 15:00:00 5.1 15 Noroeste 30 Noroeste 0 -- -- 81
2020-03-27 14:00:00 6.4 15 Noroeste 28 Noroeste 0 -- -- 67
2020-03-27 13:00:00 5.1 17 Norte 28 Noroeste 0 -- -- 76
2020-03-27 12:00:00 5 19 Noroeste 29 Noroeste 0 -- -- 84
2020-03-27 11:00:00 4.4 12 Norte 27 Noroeste 0 -- -- 81
2020-03-27 10:00:00 3.1 22 Norte 39 Norte 0 -- -- 85
2020-03-27 09:00:00 2.5 24 Norte 35 Noroeste 0 -- -- 82
2020-03-27 08:00:00 1.9 25 Noroeste 36 Noroeste 0 -- -- 87
2020-03-27 07:00:00 1.5 26 Norte 35 Norte 0 -- -- 89
2020-03-27 06:00:00 1.2 14 Nordeste 20 Nordeste 0 -- -- 90
2020-03-27 05:00:00 1.2 15 Nordeste 25 Nordeste 0 -- -- 89
2020-03-27 04:00:00 1.2 13 Nordeste 33 Este 0 -- -- 85
2020-03-27 03:00:00 1.4 25 Este 48 Este 0 -- -- 83
2020-03-27 02:00:00 1.4 33 Este 51 Este 0 -- -- 95
2020-03-27 01:00:00 1.4 32 Este 47 Este 0.2 -- -- 99
2020-03-27 00:00:00 1.4 19 Nordeste 41 Este 1.4 -- -- 99
2020-03-26 23:00:00 1.5 13 Nordeste 31 Nordeste 0.3 -- -- 99
2020-03-26 22:00:00 1.7 24 Este 44 Nordeste 0.4 -- -- 99
2020-03-26 21:00:00 1.8 25 Este 37 Este 0.4 -- -- 99
2020-03-26 20:00:00 2.4 20 Norte 31 Norte 0 -- -- 99
2020-03-26 19:00:00 2.5 13 Norte 24 Nordeste 0 -- -- 97
2020-03-26 18:00:00 2.7 18 Nordeste 31 Este 0 -- -- 92
2020-03-26 17:00:00 3.5 11 Nordeste 33 Nordeste 0 -- -- 96
2020-03-26 16:00:00 3 15 Este 33 Nordeste 0 -- -- 99
2020-03-26 15:00:00 3.1 9 Nordeste 17 Nordeste 0 -- -- 99
2020-03-26 14:00:00 3.1 4 Este 18 Nordeste 0.2 -- -- 99
2020-03-26 13:00:00 1.9 16 Norte 27 Nordeste 1.2 -- -- 99
2020-03-26 12:00:00 2 15 Norte 29 Norte 1.2 -- -- 99
2020-03-26 11:00:00 2.4 12 Sudeste 19 Sur 0.4 -- -- 99
2020-03-26 10:00:00 2.1 7 Sur 13 Sudoeste 0.5 -- -- 99
2020-03-26 09:00:00 2.5 5 Sur 20 Oeste 0 -- -- 99
2020-03-26 08:00:00 3.2 12 Oeste 22 Oeste 0 -- -- 98
2020-03-26 07:00:00 2.1 13 Oeste 24 Oeste 0 -- -- 99
2020-03-26 06:00:00 1.9 14 Sudoeste 28 Oeste 0 -- -- 99
2020-03-26 05:00:00 1.8 16 Oeste 31 Oeste 0 -- -- 99
2020-03-26 04:00:00 1.8 17 Sudoeste 26 Oeste 0 -- -- 97
2020-03-26 03:00:00 1.9 15 Sur 21 Sur 0 -- -- 94
2020-03-26 02:00:00 1.9 10 Sur 16 Sur 0 -- -- 90
2020-03-26 01:00:00 1.6 11 Sur 16 Sur 0 -- -- 84
2020-03-26 00:00:00 1.6 8 Sur 14 Sur 0 -- -- 83
2020-03-25 23:00:00 1.3 12 Sudeste 13 Sudeste 0 -- -- 91
2020-03-25 22:00:00 1.3 7 Sudeste 13 Sudeste 0 -- -- 85
2020-03-25 21:00:00 1.4 7 Sur 18 Sudeste 0 -- -- 84
2020-03-25 20:00:00 1.9 14 Sudeste 18 Sudeste 0 -- -- 85
2020-03-25 19:00:00 2.7 13 Este 22 Sudeste 0 -- -- 76
2020-03-25 18:00:00 4 9 Este 24 Norte 0 -- -- 71
2020-03-25 17:00:00 5.1 17 Noroeste 27 Noroeste 0 -- -- 65
2020-03-25 16:00:00 5 13 Norte 31 Noroeste 0 -- -- 65
2020-03-25 15:00:00 5.1 22 Noroeste 41 Noroeste 0 -- -- 66
2020-03-25 14:00:00 5.1 17 Noroeste 27 Norte 0 -- -- 66
2020-03-25 13:00:00 4.5 16 Noroeste 28 Noroeste 0 -- -- 68
2020-03-25 12:00:00 4.7 13 Norte 27 Nordeste 0 -- -- 75
2020-03-25 11:00:00 3.7 19 Nordeste 34 Nordeste 0 -- -- 60
2020-03-25 10:00:00 4.1 12 Norte 39 Nordeste 0 -- -- 73
2020-03-25 09:00:00 2.5 18 Nordeste 30 Norte 0 -- -- 87
2020-03-25 08:00:00 2.1 15 Nordeste 31 Nordeste 0 -- -- 86
2020-03-25 07:00:00 1.3 13 Este 26 Este 0 -- -- 88
2020-03-25 06:00:00 1.4 16 Este 35 Este 0 -- -- 91
2020-03-25 05:00:00 1.5 12 Nordeste 38 Este 0 -- -- 95
2020-03-25 04:00:00 1.7 19 Este 39 Nordeste 0 -- -- 99
2020-03-25 03:00:00 2.1 18 Este 49 Nordeste 0 -- -- 99
2020-03-25 02:00:00 2.4 21 Nordeste 45 Nordeste 0 -- -- 96
2020-03-25 01:00:00 2.6 28 Nordeste 50 Nordeste 0 -- -- 90
2020-03-25 00:00:00 3 19 Nordeste 47 Nordeste 0 -- -- 92
2020-03-24 23:00:00 3.2 20 Nordeste 40 Este 0 -- -- 94
2020-03-24 22:00:00 3.2 25 Este 43 Nordeste 0 -- -- 96
2020-03-24 21:00:00 3.3 23 Este 47 Este 0 -- -- 97
2020-03-24 20:00:00 3.4 21 Este 43 Este 0 -- -- 96
2020-03-24 19:00:00 3.4 27 Este 56 Este 0 -- -- 93
2020-03-24 18:00:00 4 31 Este 62 Sudeste 0 -- -- 88
2020-03-24 17:00:00 4.5 37 Este 56 Este 0 -- -- 93
2020-03-24 16:00:00 5.1 26 Este 49 Sudeste 0 -- -- 99
2020-03-24 15:00:00 5.1 31 Este 48 Este 0.1 -- -- 99
2020-03-24 14:00:00 5.2 26 Este 45 Sudeste 0 -- -- 99
2020-03-24 13:00:00 7.2 26 Este 48 Sudeste 0 -- -- 99
2020-03-24 12:00:00 6.6 37 Este 61 Este 0 -- -- 99
2020-03-24 11:00:00 6.5 41 Este 63 Sudeste 0 -- -- 99
2020-03-24 10:00:00 6.6 45 Este 62 Sudeste 0 -- -- 98
2020-03-24 09:00:00 5.1 45 Este 62 Sudeste 0 -- -- 99
2020-03-24 08:00:00 5.2 35 Este 65 Sudeste 0 -- -- 99
2020-03-24 07:00:00 5.6 37 Este 62 Sudeste 0 -- -- 99
2020-03-24 06:00:00 5.6 36 Este 57 Sudeste 0.1 -- -- 99
2020-03-24 05:00:00 6.4 28 Este 49 Sudeste 0 -- -- 99
2020-03-24 04:00:00 6.6 27 Sudeste 64 Sudeste 0 -- -- 99
2020-03-24 03:00:00 7 45 Sudeste 69 Sudeste 0 -- -- 99
2020-03-24 02:00:00 7.1 48 Sudeste 72 Sudeste 0 -- -- 99
2020-03-24 01:00:00 7.1 48 Sudeste 67 Sudeste 0 -- -- 99
2020-03-24 00:00:00 6.3 43 Sudeste 59 Sudeste 0 -- -- 99
2020-03-23 23:00:00 6.4 31 Sudeste 55 Sudeste 0 -- -- 99
2020-03-23 22:00:00 7.1 40 Sudeste 55 Sudeste 0 -- -- 99
2020-03-23 21:00:00 7.2 41 Sudeste 53 Este 0 -- -- 99
2020-03-23 20:00:00 7.4 41 Sudeste 53 Este 0 -- -- 99
2020-03-23 19:00:00 7.5 37 Sudeste 48 Este 0 -- -- 99
2020-03-23 18:00:00 8.3 32 Sudeste 48 Este 0 -- -- 99
2020-03-23 17:00:00 9.2 27 Sudeste 39 Sudeste 0 -- -- 96
2020-03-23 16:00:00 11.1 16 Sudeste 34 Sudeste 0 -- -- 89
2020-03-23 15:00:00 11.4 19 Sudeste 32 Sudeste 0 -- -- 88
2020-03-23 14:00:00 11.7 17 Sudeste 30 Sudeste 0 -- -- 84
2020-03-23 13:00:00 9.9 16 Sudeste 29 Sudeste 0 -- -- 97
2020-03-23 12:00:00 8.9 19 Sudeste 31 Sudeste 0 -- -- 99
2020-03-23 11:00:00 8.5 16 Sudeste 30 Sudeste 0 -- -- 99
2020-03-23 10:00:00 8.1 15 Sudeste 28 Sudeste 0 -- -- 99
2020-03-23 09:00:00 7.7 19 Sudeste 28 Sudeste 0 -- -- 99
2020-03-23 08:00:00 7.1 18 Sudeste 29 Sudeste 0 -- -- 99
2020-03-23 07:00:00 7.2 18 Sudeste 28 Sudeste 0 -- -- 99
2020-03-23 06:00:00 7.3 19 Sudeste 27 Sudeste 0.1 -- -- 99
2020-03-23 05:00:00 7 23 Sur 34 Sur 0 -- -- 99
2020-03-23 04:00:00 7.3 24 Sudeste 33 Sur 0 -- -- 99
2020-03-23 03:00:00 7.2 24 Sur 35 Sur 0 -- -- 99
2020-03-23 02:00:00 7.2 25 Sudeste 36 Sur 0 -- -- 99
2020-03-23 01:00:00 7.1 27 Sur 35 Sur 0 -- -- 99
2020-03-23 00:00:00 6.4 29 Sur 33 Sudeste 0.1 -- -- 99
2020-03-22 23:00:00 6.9 24 Sudeste 35 Sur 0 -- -- 99
2020-03-22 22:00:00 7.1 26 Sur 37 Sur 0 -- -- 99
2020-03-22 21:00:00 7.6 18 Sur 30 Sudeste 0.2 -- -- 99
2020-03-22 20:00:00 7.8 26 Sudeste 33 Sudeste 0.9 -- -- 99
2020-03-22 19:00:00 8.2 15 Sudeste 23 Sudeste 0 -- -- 99
2020-03-22 18:00:00 8.9 5 Sur 13 Sudeste 0 -- -- 99
2020-03-22 17:00:00 9.4 6 Sudeste 19 Sudeste 0 -- -- 98
2020-03-22 16:00:00 8.8 11 Sudeste 22 Sudeste 0 -- -- 99
2020-03-22 15:00:00 9.4 13 Sur 19 Sur 0 -- -- 91
2020-03-22 14:00:00 9.1 12 Sudeste 28 Sudeste 0.1 -- -- 99
2020-03-22 13:00:00 7.4 22 Sudeste 41 Sudeste 1.9 -- -- 99
2020-03-22 12:00:00 7.4 32 Sudeste 45 Sudeste 0 -- -- 99
2020-03-22 11:00:00 8.7 17 Sudeste 30 Sudeste 0 -- -- 99
2020-03-22 10:00:00 8.1 21 Sudeste 35 Sudeste 0 -- -- 99
2020-03-22 09:00:00 8.2 23 Sudeste 34 Sudeste 0 -- -- 99
2020-03-22 08:00:00 8.3 21 Este 28 Este 0 -- -- 95
2020-03-22 07:00:00 7.7 15 Este 21 Este 0 -- -- 86
2020-03-22 06:00:00 6.9 7 Nordeste 14 Nordeste 0 -- -- 99
2020-03-22 05:00:00 7.1 11 Norte 15 Nordeste 0 -- -- 99
2020-03-22 04:00:00 7.3 8 Norte 14 Nordeste 0 -- -- 99
2020-03-22 03:00:00 7.3 9 Nordeste 11 Nordeste 0 -- -- 99
2020-03-22 02:00:00 7.6 4 Norte 10 Este 0 -- -- 99
2020-03-22 01:00:00 8.1 3 Nordeste 10 Este 0 -- -- 91
2020-03-22 00:00:00 7.9 8 Este 12 Este 0 -- -- 90
2020-03-21 23:00:00 7.3 9 Este 17 Este 0 -- -- 97
2020-03-21 22:00:00 7.4 12 Este 22 Este 0 -- -- 99
2020-03-21 21:00:00 7.1 16 Este 22 Este 0 -- -- 99
2020-03-21 20:00:00 7.4 14 Este 20 Sudeste 0 -- -- 99
2020-03-21 19:00:00 7.9 15 Sudeste 25 Sudeste 0 -- -- 99
2020-03-21 18:00:00 8.2 19 Sudeste 26 Este 0 -- -- 97
2020-03-21 17:00:00 9.1 18 Sudeste 27 Sudeste 0 -- -- 96
2020-03-21 16:00:00 10 11 Sudeste 23 Sudeste 0 -- -- 92
2020-03-21 15:00:00 10.9 13 Sudeste 22 Sudeste 0 -- -- 82
2020-03-21 14:00:00 10 11 Este 30 Este 0 -- -- 87
2020-03-21 13:00:00 9.9 14 Este 26 Sudeste 0 -- -- 94
2020-03-21 12:00:00 11.6 12 Este 22 Sudeste 0 -- -- 85
2020-03-21 11:00:00 10.1 11 Este 27 Este 0 -- -- 94
2020-03-21 10:00:00 9 12 Este 27 Sudeste 0 -- -- 98
2020-03-21 09:00:00 8.8 19 Este 33 Este 0 -- -- 91
2020-03-21 08:00:00 7.1 23 Este 33 Este 0 -- -- 98
2020-03-21 07:00:00 6.3 17 Este 26 Este 0 -- -- 95
2020-03-21 06:00:00 5.1 14 Nordeste 22 Nordeste 0 -- -- 99
2020-03-21 05:00:00 5.2 15 Nordeste 30 Este 0 -- -- 99
2020-03-21 04:00:00 5.1 20 Este 34 Este 0 -- -- 99
2020-03-21 03:00:00 5.2 23 Este 33 Este 0 -- -- 99
2020-03-21 02:00:00 5.1 14 Este 37 Este 0 -- -- 99
2020-03-21 01:00:00 5.1 26 Este 48 Sudeste 0 -- -- 99
2020-03-21 00:00:00 5.4 29 Este 41 Sudeste 0 -- -- 99
2020-03-20 23:00:00 5.7 31 Este 44 Este 0 -- -- 99
2020-03-20 22:00:00 6.3 31 Este 44 Sudeste 0 -- -- 99
2020-03-20 21:00:00 6.9 28 Este 40 Sudeste 0 -- -- 99
2020-03-20 20:00:00 7.2 20 Este 27 Este 0 -- -- 99
2020-03-20 19:00:00 7.5 15 Este 29 Este 0 -- -- 99
2020-03-20 18:00:00 7.9 21 Este 32 Este 0 -- -- 90
2020-03-20 17:00:00 9 22 Este 34 Este 0 -- -- 89
2020-03-20 16:00:00 9.8 23 Este 33 Sudeste 0 -- -- 82
2020-03-20 15:00:00 10.6 15 Sudeste 31 Este 0 -- -- 74
2020-03-20 14:00:00 11.1 16 Este 30 Sudeste 0 -- -- 67
2020-03-20 13:00:00 10.4 18 Este 36 Este 0 -- -- 78
2020-03-20 12:00:00 10.5 20 Este 41 Sudeste 0 -- -- 76
2020-03-20 11:00:00 9.4 23 Este 39 Sudeste 0 -- -- 89
2020-03-20 10:00:00 6.8 25 Sudeste 39 Sudeste 0 -- -- 99
2020-03-20 09:00:00 6.3 24 Sudeste 40 Sudeste 0 -- -- 99
2020-03-20 08:00:00 5.5 31 Este 46 Sudeste 0 -- -- 99
2020-03-20 07:00:00 5.2 32 Este 40 Sudeste 0 -- -- 99
2020-03-20 06:00:00 5.2 32 Sudeste 44 Sudeste 0 -- -- 99
2020-03-20 05:00:00 5 29 Este 38 Sudeste 0 -- -- 99
2020-03-20 04:00:00 5 32 Sudeste 38 Este 0 -- -- 99
2020-03-20 03:00:00 4.8 29 Sudeste 39 Este 0 -- -- 99
2020-03-20 02:00:00 5 30 Este 42 Sudeste 0 -- -- 99
2020-03-20 01:00:00 5.1 29 Este 40 Este 0 -- -- 99
2020-03-20 00:00:00 5.2 28 Este 38 Este 0 -- -- 96
2020-03-19 23:00:00 5.4 26 Este 35 Este 0 -- -- 99
2020-03-19 22:00:00 5.8 21 Este 34 Este 0 -- -- 99
2020-03-19 21:00:00 5.2 24 Sudeste 30 Sudeste 0 -- -- 99
2020-03-19 20:00:00 6.3 18 Este 27 Este 0 -- -- 88
2020-03-19 19:00:00 6.9 21 Este 29 Este 0 -- -- 96
2020-03-19 18:00:00 8.3 18 Sudeste 25 Este 0 -- -- 94
2020-03-19 17:00:00 9.7 14 Sudeste 22 Sudeste 0 -- -- 86
2020-03-19 16:00:00 10 12 Sudeste 24 Sudeste 0 -- -- 83
2020-03-19 15:00:00 11.1 9 Este 19 Sudeste 0 -- -- 76
2020-03-19 14:00:00 11.3 6 Este 18 Sudeste 0 -- -- 72
2020-03-19 13:00:00 12.7 6 Este 16 Sudeste 0 -- -- 67
2020-03-19 12:00:00 11.9 7 Este 17 Nordeste 0 -- -- 69
2020-03-19 11:00:00 9.5 3 Nordeste 15 Este 0 -- -- 83
2020-03-19 10:00:00 8 9 Este 18 Este 0 -- -- 91
2020-03-19 09:00:00 7.3 9 Este 12 Este 0 -- -- 99
2020-03-19 08:00:00 6.4 9 Este 13 Sudeste 0 -- -- 96
2020-03-19 07:00:00 5.6 10 Este 13 Este 0 -- -- 95
2020-03-19 06:00:00 5.7 9 Este 15 Sudeste 0 -- -- 96
2020-03-19 05:00:00 6.3 13 Sudeste 15 Sudeste 0 -- -- 97
2020-03-19 04:00:00 6.7 10 Sudeste 13 Sudeste 0 -- -- 91
2020-03-19 03:00:00 6.8 12 Sudeste 15 Sudeste 0 -- -- 91
2020-03-19 02:00:00 6.9 13 Sudeste 17 Sudeste 0 -- -- 93
2020-03-19 01:00:00 6.9 11 Sudeste 14 Sudeste 0 -- -- 85
2020-03-19 00:00:00 7.2 13 Sudeste 22 Sudeste 0 -- -- 84
2020-03-18 23:00:00 6.9 17 Sudeste 24 Este 0 -- -- 99
2020-03-18 22:00:00 6.9 16 Este 24 Sudeste 0 -- -- 97
2020-03-18 21:00:00 7.2 16 Este 22 Sudeste 0 -- -- 87
2020-03-18 20:00:00 7.7 16 Este 25 Este 0 -- -- 78
2020-03-18 19:00:00 7.9 19 Este 26 Este 0 -- -- 80
2020-03-18 18:00:00 8 22 Sudeste 29 Sudeste 0 -- -- 98
2020-03-18 17:00:00 9 17 Sudeste 22 Sudeste 0 -- -- 99
2020-03-18 16:00:00 9.8 11 Este 22 Este 0 -- -- 91
2020-03-18 15:00:00 9.7 14 Este 21 Sudeste 0 -- -- 95
2020-03-18 14:00:00 9.8 12 Este 29 Sudeste 0 -- -- 95
2020-03-18 13:00:00 8.9 14 Este 26 Este 0 -- -- 99
2020-03-18 12:00:00 9.3 15 Este 27 Este 0 -- -- 97
2020-03-18 11:00:00 10 8 Este 24 Este 0 -- -- 91
2020-03-18 10:00:00 8.8 12 Este 33 Este 0 -- -- 94
2020-03-18 09:00:00 7.8 17 Este 40 Este 0 -- -- 96
2020-03-18 08:00:00 7.3 31 Este 58 Este 0 -- -- 97
2020-03-18 07:00:00 7.1 37 Este 51 Este 0 -- -- 96
2020-03-18 06:00:00 7.1 38 Este 50 Este 0 -- -- 94
2020-03-18 05:00:00 7.3 29 Este 44 Nordeste 0 -- -- 91
2020-03-18 04:00:00 7.2 24 Este 40 Este 0 -- -- 95
2020-03-18 03:00:00 7.1 30 Este 45 Este 0 -- -- 95
2020-03-18 02:00:00 7.7 28 Este 47 Este 0 -- -- 88
2020-03-18 01:00:00 8 32 Este 51 Este 0 -- -- 82
2020-03-18 00:00:00 8 36 Este 64 Sudeste 0 -- -- 85
2020-03-17 23:00:00 7.8 45 Este 71 Sudeste 0 -- -- 90
2020-03-17 22:00:00 7.7 53 Este 74 Sudeste 0 -- -- 94
2020-03-17 21:00:00 7.5 55 Este 77 Este 0 -- -- 96
2020-03-17 20:00:00 7.3 57 Sudeste 76 Este 0 -- -- 99
2020-03-17 19:00:00 7.2 56 Sudeste 76 Sudeste 0 -- -- 99
2020-03-17 18:00:00 7.8 54 Sudeste 79 Sudeste 0 -- -- 96
2020-03-17 17:00:00 8 54 Sudeste 82 Sudeste 0.1 -- -- 92
2020-03-17 16:00:00 8.2 42 Sudeste 66 Sudeste 0 -- -- 99
2020-03-17 15:00:00 9 34 Sudeste 57 Sudeste 0 -- -- 99
2020-03-17 14:00:00 9.5 33 Sudeste 58 Sudeste 0 -- -- 99
2020-03-17 13:00:00 9.5 37 Sudeste 83 Sudeste 0 -- -- 99
2020-03-17 12:00:00 9.8 31 Sudeste 49 Sudeste 0 -- -- 99
2020-03-17 11:00:00 9.6 28 Sudeste 59 Sudeste 0 -- -- 99
2020-03-17 10:00:00 9.5 27 Sudeste 57 Sudeste 0 -- -- 99
2020-03-17 09:00:00 9.4 38 Sudeste 62 Sudeste 0.1 -- -- 99
2020-03-17 08:00:00 9.6 44 Sudeste 63 Sudeste 0 -- -- 99
2020-03-17 07:00:00 11.3 25 Este 38 Sudeste 0 -- -- 78
2020-03-17 06:00:00 11.2 22 Este 31 Este 0 -- -- 81
2020-03-17 05:00:00 9.2 20 Este 32 Sudeste 0.2 -- -- 99
2020-03-17 04:00:00 9.3 24 Sudeste 35 Sudeste 0 -- -- 99
2020-03-17 03:00:00 9.5 27 Sudeste 44 Sudeste 0.1 -- -- 99
2020-03-17 02:00:00 9.5 27 Sudeste 45 Sudeste 0 -- -- 99
2020-03-17 01:00:00 9.4 28 Sudeste 51 Sudeste 0 -- -- 99
2020-03-17 00:00:00 9.5 33 Sudeste 55 Sur 0.1 -- -- 99
2020-03-16 23:00:00 9.3 33 Sur 57 Sudeste 0 -- -- 99
2020-03-16 22:00:00 9.6 30 Sur 51 Sudeste 0.1 -- -- 99
2020-03-16 21:00:00 9.6 33 Sudeste 55 Sur 0 -- -- 99
2020-03-16 20:00:00 9.6 37 Sur 55 Sudeste 0 -- -- 99
2020-03-16 19:00:00 9.7 30 Sudeste 46 Sur 0 -- -- 99
2020-03-16 18:00:00 10 30 Sur 48 Sudeste 0 -- -- 99
2020-03-16 17:00:00 10.4 32 Sudeste 56 Sudeste 0 -- -- 99
2020-03-16 16:00:00 10.2 32 Sur 60 Sur 0 -- -- 99
2020-03-16 15:00:00 9.9 40 Sur 69 Sur 0 -- -- 99
2020-03-16 14:00:00 9.8 46 Sur 75 Sur 0 -- -- 99
2020-03-16 13:00:00 9.6 46 Sudeste 69 Sur 0 -- -- 99
2020-03-16 12:00:00 9.6 43 Sur 70 Sudeste 0.1 -- -- 99
2020-03-16 11:00:00 9.4 38 Sudeste 66 Sur 0.8 -- -- 99
2020-03-16 10:00:00 9.1 48 Sudeste 68 Sudeste 0.3 -- -- 99
2020-03-16 09:00:00 9 34 Sur 59 Sudeste 0 -- -- 99
2020-03-16 08:00:00 8.4 36 Sudeste 53 Sudeste 0.2 -- -- 99
2020-03-16 07:00:00 8 32 Sudeste 53 Sudeste 0 -- -- 99
2020-03-16 06:00:00 7.5 39 Sudeste 53 Sudeste 0 -- -- 99
2020-03-16 05:00:00 6.6 40 Sudeste 52 Sudeste 0 -- -- 99
2020-03-16 04:00:00 6.8 32 Sudeste 49 Sur 0 -- -- 75
2020-03-16 03:00:00 7.9 27 Sur 41 Sudeste 0 -- -- 41
2020-03-16 02:00:00 9.9 27 Sur 46 Sur 0 -- -- 24
2020-03-16 01:00:00 7.3 33 Sur 50 Sur 0 -- -- 65
2020-03-16 00:00:00 7.1 35 Sur 54 Sur 0 -- -- 80
2020-03-15 23:00:00 6.7 35 Sur 48 Sudeste 0 -- -- 98
2020-03-15 22:00:00 6.8 37 Sudeste 49 Sudeste 0 -- -- 99
2020-03-15 21:00:00 6.8 33 Sudeste 43 Sudeste 0 -- -- 99
2020-03-15 20:00:00 7.2 31 Sudeste 41 Sudeste 0 -- -- 99
2020-03-15 19:00:00 8.1 27 Sudeste 35 Sudeste 0 -- -- 99
2020-03-15 18:00:00 9.6 23 Sudeste 34 Sudoeste 0 -- -- 99
2020-03-15 17:00:00 9.8 23 Sur 32 Sur 0 -- -- 99
2020-03-15 16:00:00 9.9 14 Sur 22 Sur 0 -- -- 99
2020-03-15 15:00:00 10 9 Sur 21 Sur 0 -- -- 98
2020-03-15 14:00:00 10 8 Sur 18 Sur 0 -- -- 99
2020-03-15 13:00:00 10.9 13 Sur 22 Sur 0 -- -- 87
2020-03-15 12:00:00 10.9 12 Sur 25 Sur 0 -- -- 86
2020-03-15 11:00:00 10.2 13 Sur 26 Sur 0 -- -- 88
2020-03-15 10:00:00 10.4 17 Sudeste 23 Sudeste 0 -- -- 77
2020-03-15 09:00:00 10.3 9 Sudeste 17 Sudeste 0 -- -- 83
2020-03-15 08:00:00 8.6 14 Sudeste 16 Sudeste 0 -- -- 94
2020-03-15 07:00:00 7.3 12 Sur 14 Sur 0 -- -- 95
2020-03-15 06:00:00 7.2 7 Sur 9 Sudeste 0 -- -- 94
2020-03-15 05:00:00 7.3 0 Calma 6 Noroeste 0 -- -- 95
2020-03-15 04:00:00 7.4 4 Noroeste 6 Norte 0 -- -- 93
2020-03-15 03:00:00 8.1 4 Norte 13 Norte 0 -- -- 90
2020-03-15 02:00:00 8.1 10 Norte 13 Norte 0 -- -- 92
2020-03-15 01:00:00 8.4 13 Norte 16 Norte 0 -- -- 91
2020-03-15 00:00:00 8.4 11 Noroeste 14 Noroeste 0 -- -- 87
2020-03-14 23:00:00 8.7 8 Oeste 14 Noroeste 0 -- -- 81
2020-03-14 22:00:00 8.8 11 Noroeste 14 Oeste 0 -- -- 84
2020-03-14 21:00:00 9 10 Noroeste 17 Noroeste 0 -- -- 85
2020-03-14 20:00:00 9.1 9 Noroeste 17 Oeste 0 -- -- 84
2020-03-14 19:00:00 9.2 5 Sudoeste 13 Oeste 0 -- -- 98
2020-03-14 18:00:00 10.2 8 Sur 12 Sudeste 0 -- -- 96
2020-03-14 17:00:00 11.3 2 Sudoeste 12 Norte 0 -- -- 89
2020-03-14 16:00:00 10.6 5 Norte 15 Noroeste 0 -- -- 86
2020-03-14 15:00:00 10.6 8 Norte 18 Norte 0 -- -- 90
2020-03-14 14:00:00 12.4 7 Noroeste 18 Noroeste 0 -- -- 82
2020-03-14 13:00:00 11.2 6 Noroeste 18 Noroeste 0 -- -- 91
2020-03-14 12:00:00 11 13 Noroeste 19 Noroeste 0 -- -- 95
2020-03-14 11:00:00 12.6 8 Noroeste 18 Oeste 0 -- -- 82
2020-03-14 10:00:00 10.9 10 Noroeste 20 Noroeste 0 -- -- 85
2020-03-14 09:00:00 9.3 14 Noroeste 24 Norte 0 -- -- 89
2020-03-14 08:00:00 8.6 21 Noroeste 28 Norte 0 -- -- 91
2020-03-14 07:00:00 8.2 22 Noroeste 26 Noroeste 0 -- -- 94
2020-03-14 06:00:00 8.6 15 Norte 23 Norte 0 -- -- 91
2020-03-14 05:00:00 8.7 16 Norte 27 Norte 0 -- -- 93
2020-03-14 04:00:00 8.4 24 Noroeste 35 Noroeste 0.1 -- -- 97
2020-03-14 03:00:00 8.4 25 Noroeste 35 Noroeste 1.9 -- -- 99
2020-03-14 02:00:00 9.5 4 Sudoeste 24 Noroeste 3.1 -- -- 90
2020-03-14 01:00:00 9.6 14 Noroeste 18 Noroeste 0 -- -- 83
2020-03-14 00:00:00 10 0 Calma 5 Noroeste 0 -- -- 80
2020-03-13 23:00:00 10.5 4 Noroeste 6 Noroeste 0 -- -- 77
2020-03-13 22:00:00 10.4 3 Norte 7 Nordeste 0 -- -- 78
2020-03-13 21:00:00 10.7 8 Este 16 Sudeste 0 -- -- 71
2020-03-13 20:00:00 11.2 5 Este 15 Este 0 -- -- 70
2020-03-13 19:00:00 11.3 8 Este 16 Este 0 -- -- 69
2020-03-13 18:00:00 12.3 9 Este 23 Este 0 -- -- 67
2020-03-13 17:00:00 12.2 15 Sudeste 30 Este 0 -- -- 70
2020-03-13 16:00:00 12.5 22 Sudeste 38 Sudeste 0 -- -- 70
2020-03-13 15:00:00 12.8 29 Sudeste 42 Sudeste 0 -- -- 69
2020-03-13 14:00:00 12.8 31 Sudeste 39 Sudeste 0 -- -- 70
2020-03-13 13:00:00 13 31 Este 47 Este 0 -- -- 75
2020-03-13 12:00:00 12.7 29 Este 39 Sudeste 0 -- -- 77
2020-03-13 11:00:00 12.7 22 Este 33 Este 0 -- -- 77
2020-03-13 10:00:00 12.7 17 Este 27 Este 0 -- -- 74
2020-03-13 09:00:00 12.2 13 Este 27 Este 0 -- -- 62
2020-03-13 08:00:00 10.6 19 Este 28 Este 0 -- -- 70
2020-03-13 07:00:00 10.3 20 Este 27 Este 0 -- -- 65
2020-03-13 06:00:00 11.6 10 Este 24 Sudeste 0 -- -- 48
2020-03-13 05:00:00 12 19 Sudeste 22 Sudeste 0 -- -- 48
2020-03-13 04:00:00 12.7 15 Sudeste 17 Sudeste 0 -- -- 46
2020-03-13 03:00:00 13.7 5 Este 8 Norte 0 -- -- 44
2020-03-13 02:00:00 15.1 4 Norte 5 Norte 0 -- -- 34
2020-03-13 01:00:00 15.3 0 Calma 9 Sur 0 -- -- 29
2020-03-13 00:00:00 15.9 10 Sur 19 Sur 0 -- -- 28
2020-03-12 23:00:00 15.1 17 Sur 23 Sur 0 -- -- 40
2020-03-12 22:00:00 14.9 20 Sur 25 Sur 0 -- -- 43
2020-03-12 21:00:00 14.9 22 Sur 25 Sur 0 -- -- 42
2020-03-12 20:00:00 15.8 22 Sur 26 Sur 0 -- -- 33
2020-03-12 19:00:00 17 18 Sur 22 Sur 0 -- -- 24
2020-03-12 18:00:00 17.8 14 Sur 19 Sur 0 -- -- 24
2020-03-12 17:00:00 18.6 13 Sur 16 Sur 0 -- -- 24
2020-03-12 16:00:00 17.3 12 Sur 19 Sur 0 -- -- 36
2020-03-12 15:00:00 19 8 Sur 17 Sur 0 -- -- 34
2020-03-12 14:00:00 18.8 13 Sur 19 Sur 0 -- -- 35
2020-03-12 13:00:00 19.3 13 Sur 20 Sur 0 -- -- 28
2020-03-12 12:00:00 19.6 11 Sur 17 Sur 0 -- -- 25
2020-03-12 11:00:00 19 13 Sur 21 Sur 0 -- -- 32
2020-03-12 10:00:00 18.7 12 Sur 17 Sur 0 -- -- 24
2020-03-12 09:00:00 17.4 11 Sur 18 Sur 0 -- -- 30
2020-03-12 08:00:00 15.3 17 Sur 23 Sur 0 -- -- 42
2020-03-12 07:00:00 15 16 Sur 21 Sur 0 -- -- 32
2020-03-12 06:00:00 14.9 14 Sur 17 Sur 0 -- -- 33
2020-03-12 05:00:00 14.7 10 Sur 12 Sur 0 -- -- 37
2020-03-12 04:00:00 13.6 8 Sur 12 Sur 0 -- -- 50
2020-03-12 03:00:00 14.7 4 Sur 7 Sur 0 -- -- 35
2020-03-12 02:00:00 14.4 4 Sudeste 7 Sudeste 0 -- -- 43
2020-03-12 01:00:00 14.3 0 Calma 5 Norte 0 -- -- 44
2020-03-12 00:00:00 14.9 3 Nordeste 13 Noroeste 0 -- -- 43
2020-03-11 23:00:00 14.8 11 Noroeste 18 Noroeste 0 -- -- 44
2020-03-11 22:00:00 14.8 15 Noroeste 22 Noroeste 0 -- -- 40
2020-03-11 21:00:00 14.6 18 Noroeste 24 Noroeste 0 -- -- 40
2020-03-11 20:00:00 14.2 17 Noroeste 24 Noroeste 0 -- -- 46
2020-03-11 19:00:00 14.5 13 Noroeste 22 Noroeste 0 -- -- 44
2020-03-11 18:00:00 15.3 17 Noroeste 28 Noroeste 0 -- -- 47
2020-03-11 17:00:00 15.1 22 Noroeste 46 Noroeste 0 -- -- 49
2020-03-11 16:00:00 16 27 Noroeste 43 Noroeste 0 -- -- 48
2020-03-11 15:00:00 16.1 29 Noroeste 43 Norte 0 -- -- 45
2020-03-11 14:00:00 17 15 Noroeste 22 Oeste 0 -- -- 49
2020-03-11 13:00:00 17.2 15 Noroeste 26 Noroeste 0 -- -- 45
2020-03-11 12:00:00 15.9 12 Noroeste 21 Norte 0 -- -- 44
2020-03-11 11:00:00 15.5 12 Noroeste 22 Noroeste 0 -- -- 45
2020-03-11 10:00:00 15.6 15 Noroeste 27 Noroeste 0 -- -- 47
2020-03-11 09:00:00 15.5 13 Oeste 22 Oeste 0 -- -- 41
2020-03-11 08:00:00 14.4 15 Oeste 26 Oeste 0 -- -- 41
2020-03-11 07:00:00 12.1 20 Noroeste 30 Noroeste 0 -- -- 46
2020-03-11 06:00:00 12.5 22 Noroeste 33 Noroeste 0 -- -- 48
2020-03-11 05:00:00 12.3 20 Noroeste 31 Noroeste 0 -- -- 51
2020-03-11 04:00:00 11.9 15 Noroeste 21 Noroeste 0 -- -- 52
2020-03-11 03:00:00 11.4 14 Noroeste 19 Noroeste 0 -- -- 54
2020-03-11 02:00:00 11.6 18 Noroeste 24 Norte 0 -- -- 47
2020-03-11 01:00:00 11.8 21 Norte 30 Norte 0 -- -- 45
2020-03-11 00:00:00 10.9 25 Noroeste 37 Norte 0 -- -- 46
2020-03-10 23:00:00 10.8 29 Norte 37 Norte 0 -- -- 46
2020-03-10 22:00:00 10.6 31 Norte 39 Norte 0 -- -- 46
2020-03-10 21:00:00 10.3 32 Norte 44 Noroeste 0 -- -- 44
2020-03-10 20:00:00 9.3 36 Noroeste 50 Noroeste 0 -- -- 46
2020-03-10 19:00:00 9 36 Noroeste 46 Noroeste 0 -- -- 50
2020-03-10 18:00:00 9.6 24 Noroeste 32 Noroeste 0 -- -- 58
2020-03-10 17:00:00 10.7 11 Noroeste 22 Noroeste 0 -- -- 56
2020-03-10 16:00:00 10.1 9 Noroeste 15 Norte 0 -- -- 71
2020-03-10 15:00:00 11.1 4 Norte 15 Oeste 0 -- -- 65
2020-03-10 14:00:00 10.1 8 Noroeste 20 Norte 0 -- -- 69
2020-03-10 13:00:00 10.4 5 Norte 26 Noroeste 0 -- -- 63
2020-03-10 12:00:00 10 13 Noroeste 31 Noroeste 0 -- -- 70
2020-03-10 11:00:00 9.7 10 Noroeste 22 Noroeste 0 -- -- 75
2020-03-10 10:00:00 8.2 16 Noroeste 26 Noroeste 0 -- -- 88
2020-03-10 09:00:00 5.1 10 Noroeste 16 Noroeste 0 -- -- 99
2020-03-10 08:00:00 5.1 6 Nordeste 11 Norte 0 -- -- 97
2020-03-10 07:00:00 4.4 12 Noroeste 15 Noroeste 0 -- -- 99
2020-03-10 06:00:00 4.6 7 Norte 15 Noroeste 0 -- -- 99
2020-03-10 05:00:00 4.4 9 Norte 18 Noroeste 0 -- -- 99
2020-03-10 04:00:00 4.1 5 Noroeste 22 Este 0 -- -- 99
2020-03-10 03:00:00 3.9 18 Este 32 Sudeste 0 -- -- 99
2020-03-10 02:00:00 5 21 Sudeste 31 Sudeste 0 -- -- 99
2020-03-10 01:00:00 5.1 20 Sudeste 31 Sudeste 0 -- -- 99
2020-03-10 00:00:00 5.1 20 Este 27 Este 0 -- -- 99
2020-03-09 23:00:00 5.1 12 Este 36 Noroeste 0 -- -- 99
2020-03-09 22:00:00 5.8 27 Noroeste 58 Noroeste 0 -- -- 98
2020-03-09 21:00:00 5.9 35 Noroeste 68 Noroeste 0 -- -- 93
2020-03-09 20:00:00 6.1 36 Noroeste 66 Noroeste 0 -- -- 87
2020-03-09 19:00:00 6.4 37 Noroeste 63 Noroeste 0 -- -- 83
2020-03-09 18:00:00 7.1 31 Noroeste 59 Noroeste 0 -- -- 83
2020-03-09 17:00:00 7.5 30 Noroeste 56 Noroeste 0 -- -- 81
2020-03-09 16:00:00 6.9 35 Noroeste 53 Noroeste 0 -- -- 79
2020-03-09 15:00:00 6.5 27 Noroeste 42 Noroeste 0 -- -- 91
2020-03-09 14:00:00 7.1 27 Noroeste 60 Noroeste 0 -- -- 88
2020-03-09 13:00:00 5.9 36 Noroeste 61 Noroeste 0 -- -- 95
2020-03-09 12:00:00 6.6 44 Noroeste 80 Noroeste 0 -- -- 94
2020-03-09 11:00:00 7.1 58 Noroeste 88 Noroeste 0 -- -- 91
2020-03-09 10:00:00 7.4 58 Noroeste 87 Norte 0 -- -- 90
2020-03-09 09:00:00 6.8 55 Noroeste 83 Noroeste 0 -- -- 96
2020-03-09 08:00:00 6.6 57 Noroeste 93 Oeste 0 -- -- 92
2020-03-09 07:00:00 7.2 49 Noroeste 76 Noroeste 0 -- -- 89
2020-03-09 06:00:00 7.7 38 Noroeste 60 Norte 0 -- -- 85
2020-03-09 05:00:00 8.1 37 Noroeste 62 Oeste 0 -- -- 71
2020-03-09 04:00:00 8.1 17 Noroeste 31 Noroeste 0 -- -- 61
2020-03-09 03:00:00 8.3 19 Noroeste 34 Noroeste 0 -- -- 55
2020-03-09 02:00:00 8.3 22 Noroeste 34 Noroeste 0 -- -- 56
2020-03-09 01:00:00 8.2 19 Noroeste 27 Noroeste 0 -- -- 57
2020-03-09 00:00:00 8.3 16 Oeste 25 Noroeste 0 -- -- 57
2020-03-08 23:00:00 8.2 18 Noroeste 28 Noroeste 0 -- -- 58
2020-03-08 22:00:00 8.2 20 Noroeste 29 Noroeste 0 -- -- 58
2020-03-08 21:00:00 8.1 19 Noroeste 28 Oeste 0 -- -- 54
2020-03-08 20:00:00 8.2 22 Noroeste 33 Noroeste 0 -- -- 52
2020-03-08 19:00:00 7.9 21 Noroeste 28 Noroeste 0 -- -- 60
2020-03-08 18:00:00 9.3 19 Noroeste 26 Noroeste 0 -- -- 59
2020-03-08 17:00:00 10.1 13 Noroeste 22 Norte 0 -- -- 60
2020-03-08 16:00:00 10.1 15 Noroeste 24 Noroeste 0 -- -- 61
2020-03-08 15:00:00 9.6 13 Noroeste 27 Norte 0 -- -- 63
2020-03-08 14:00:00 9.5 21 Noroeste 40 Noroeste 0 -- -- 54
2020-03-08 13:00:00 8.3 30 Noroeste 38 Noroeste 0 -- -- 70
2020-03-08 12:00:00 7.8 28 Noroeste 36 Noroeste 0 -- -- 78
2020-03-08 11:00:00 9.2 17 Noroeste 35 Noroeste 0 -- -- 80
2020-03-08 10:00:00 8.7 24 Noroeste 41 Noroeste 0 -- -- 82
2020-03-08 09:00:00 6.2 28 Noroeste 46 Noroeste 0 -- -- 96
2020-03-08 08:00:00 5.1 33 Noroeste 48 Noroeste 0 -- -- 99
2020-03-08 07:00:00 5 32 Noroeste 47 Noroeste 0 -- -- 99
2020-03-08 06:00:00 5.1 22 Noroeste 40 Noroeste 0 -- -- 99
2020-03-08 05:00:00 5.1 21 Noroeste 37 Noroeste 0 -- -- 99
2020-03-08 04:00:00 5.2 19 Noroeste 40 Oeste 0 -- -- 87
2020-03-08 03:00:00 5.2 14 Oeste 25 Oeste 0 -- -- 91
2020-03-08 02:00:00 5.2 10 Noroeste 25 Noroeste 0 -- -- 85
2020-03-08 01:00:00 5.2 12 Noroeste 23 Noroeste 0 -- -- 87
2020-03-08 00:00:00 5.9 4 Noroeste 14 Noroeste 0.2 -- -- 80
2020-03-07 23:00:00 5.4 5 Noroeste 23 Noroeste 0 -- -- 59
2020-03-07 22:00:00 6.2 13 Noroeste 18 Noroeste 0 -- -- 36
2020-03-07 21:00:00 6.6 11 Norte 31 Norte 0 -- -- 33
2020-03-07 20:00:00 5.1 20 Noroeste 30 Noroeste 0 -- -- 40
2020-03-07 19:00:00 4.9 19 Noroeste 32 Noroeste 0 -- -- 40
2020-03-07 18:00:00 6.8 14 Noroeste 26 Noroeste 0 -- -- 40
2020-03-07 17:00:00 7.1 17 Noroeste 26 Noroeste 0 -- -- 44
2020-03-07 16:00:00 6.6 15 Noroeste 31 Noroeste 0 -- -- 58
2020-03-07 15:00:00 5.1 21 Noroeste 29 Norte 0 -- -- 80
2020-03-07 14:00:00 5.4 21 Noroeste 44 Noroeste 0 -- -- 91
2020-03-07 13:00:00 4.4 37 Noroeste 54 Norte 0 -- -- 99
2020-03-07 12:00:00 3.3 41 Noroeste 59 Noroeste 0 -- -- 99
2020-03-07 11:00:00 3.1 49 Noroeste 60 Noroeste 0 -- -- 99
2020-03-07 10:00:00 3.4 37 Noroeste 55 Noroeste 0 -- -- 99
2020-03-07 09:00:00 3 31 Noroeste 48 Noroeste 0 -- -- 99
2020-03-07 08:00:00 2.6 31 Noroeste 53 Noroeste 0 -- -- 99
2020-03-07 07:00:00 2.6 30 Noroeste 55 Noroeste 0 -- -- 99
2020-03-07 06:00:00 2.3 31 Noroeste 57 Norte 0 -- -- 99
2020-03-07 05:00:00 2.4 35 Noroeste 62 Noroeste 0 -- -- 99
2020-03-07 04:00:00 2.3 36 Noroeste 63 Noroeste 0 -- -- 99
2020-03-07 03:00:00 2.2 40 Noroeste 73 Noroeste 0 -- -- 99
2020-03-07 02:00:00 2.2 46 Noroeste 84 Oeste 0 -- -- 99
2020-03-07 01:00:00 2.5 48 Noroeste 84 Noroeste 0 -- -- 99
2020-03-07 00:00:00 2.4 46 Noroeste 82 Noroeste 0 -- -- 97
2020-03-06 23:00:00 2.7 55 Noroeste 90 Noroeste 0 -- -- 95
2020-03-06 22:00:00 3.2 53 Noroeste 99 Noroeste 0 -- -- 89
2020-03-06 21:00:00 3.4 55 Noroeste 101 Norte 0 -- -- 90
2020-03-06 20:00:00 3.9 68 Noroeste 112 Noroeste 0 -- -- 83
2020-03-06 19:00:00 4.5 64 Noroeste 105 Noroeste 0 -- -- 76
2020-03-06 18:00:00 4.5 58 Noroeste 110 Noroeste 0 -- -- 69
2020-03-06 17:00:00 4.5 54 Noroeste 96 Noroeste 0 -- -- 81
2020-03-06 16:00:00 4.6 43 Noroeste 96 Noroeste 0 -- -- 82
2020-03-06 15:00:00 5.6 42 Noroeste 97 Noroeste 0 -- -- 70
2020-03-06 14:00:00 7.2 50 Noroeste 88 Noroeste 0 -- -- 76
2020-03-06 13:00:00 5.1 41 Noroeste 75 Noroeste 0 -- -- 97
2020-03-06 12:00:00 6.5 40 Noroeste 73 Noroeste 0 -- -- 84
2020-03-06 11:00:00 7.2 47 Noroeste 81 Noroeste 0 -- -- 78
2020-03-06 10:00:00 7 34 Noroeste 70 Noroeste 0 -- -- 80
2020-03-06 09:00:00 5.5 36 Noroeste 65 Noroeste 0 -- -- 89
2020-03-06 08:00:00 5.1 41 Noroeste 71 Oeste 0 -- -- 88
2020-03-06 07:00:00 4.8 43 Noroeste 81 Noroeste 0 -- -- 88
2020-03-06 06:00:00 5.1 50 Noroeste 85 Noroeste 0 -- -- 84
2020-03-06 05:00:00 5.1 48 Noroeste 74 Noroeste 0 -- -- 85
2020-03-06 04:00:00 5.1 42 Noroeste 77 Noroeste 0 -- -- 82
2020-03-06 03:00:00 5.6 53 Noroeste 86 Noroeste 0 -- -- 69
2020-03-06 02:00:00 7.3 54 Noroeste 91 Noroeste 0 -- -- 41
2020-03-06 01:00:00 7.2 60 Noroeste 97 Noroeste 0 -- -- 60
2020-03-06 00:00:00 7.5 55 Noroeste 91 Noroeste 0 -- -- 75
2020-03-05 23:00:00 8.1 45 Noroeste 81 Noroeste 0 -- -- 80
2020-03-05 22:00:00 9 50 Noroeste 101 Noroeste 0 -- -- 75
2020-03-05 21:00:00 10.2 57 Noroeste 91 Noroeste 0 -- -- 59
2020-03-05 20:00:00 10.1 48 Noroeste 80 Noroeste 0 -- -- 62
2020-03-05 19:00:00 10.1 42 Noroeste 99 Noroeste 0 -- -- 96
2020-03-05 18:00:00 11.2 40 Oeste 99 Oeste 0 -- -- 80
2020-03-05 17:00:00 11.6 37 Oeste 93 Oeste 0 -- -- 79
2020-03-05 16:00:00 12.3 35 Oeste 79 Oeste 0 -- -- 71
2020-03-05 15:00:00 12.4 24 Oeste 62 Oeste 0 -- -- 73
2020-03-05 14:00:00 11.5 15 Oeste 51 Oeste 0 -- -- 77
2020-03-05 13:00:00 12.5 18 Sudoeste 48 Sudoeste 0 -- -- 73
2020-03-05 12:00:00 12.5 22 Sudoeste 52 Sudoeste 0 -- -- 70
2020-03-05 11:00:00 12.5 25 Sudoeste 44 Oeste 0 -- -- 66
2020-03-05 10:00:00 12.4 22 Oeste 40 Oeste 0 -- -- 73
2020-03-05 09:00:00 12.7 15 Oeste 48 Oeste 0 -- -- 74
2020-03-05 08:00:00 12.2 31 Sudoeste 44 Sudoeste 0 -- -- 72
2020-03-05 07:00:00 9.5 24 Sudoeste 38 Sudoeste 0 -- -- 88
2020-03-05 06:00:00 9.9 25 Sur 38 Sur 0 -- -- 83
2020-03-05 05:00:00 10.8 24 Sur 37 Sur 0 -- -- 76
2020-03-05 04:00:00 10.3 20 Sur 32 Sur 0 -- -- 80
2020-03-05 03:00:00 10.2 19 Sur 26 Sudoeste 0 -- -- 80
2020-03-05 02:00:00 12 19 Sudoeste 32 Sudoeste 0 -- -- 70
2020-03-05 01:00:00 12.5 20 Oeste 33 Oeste 0 -- -- 70
2020-03-05 00:00:00 11.8 11 Oeste 27 Oeste 0 -- -- 75
2020-03-04 23:00:00 11.5 12 Oeste 28 Noroeste 0 -- -- 78
2020-03-04 22:00:00 11.2 17 Oeste 26 Oeste 0 -- -- 82
2020-03-04 21:00:00 11.3 12 Oeste 35 Noroeste 0 -- -- 83
2020-03-04 20:00:00 10.8 19 Noroeste 48 Noroeste 0 -- -- 88
2020-03-04 19:00:00 11 24 Noroeste 52 Noroeste 0 -- -- 89
2020-03-04 18:00:00 11.3 30 Oeste 58 Oeste 0 -- -- 86
2020-03-04 17:00:00 12.4 28 Noroeste 45 Oeste 0 -- -- 76
2020-03-04 16:00:00 12.2 26 Noroeste 55 Oeste 0 -- -- 79
2020-03-04 15:00:00 12.7 21 Noroeste 45 Noroeste 0 -- -- 74
2020-03-04 14:00:00 14.3 21 Oeste 40 Noroeste 0 -- -- 69
2020-03-04 13:00:00 11.5 16 Oeste 39 Oeste 0 -- -- 75
2020-03-04 12:00:00 12 13 Oeste 33 Oeste 0 -- -- 69
2020-03-04 11:00:00 11.4 10 Oeste 39 Noroeste 0 -- -- 75
2020-03-04 10:00:00 10.1 21 Noroeste 54 Noroeste 0 -- -- 73
2020-03-04 09:00:00 9 33 Noroeste 59 Noroeste 0 -- -- 70
2020-03-04 08:00:00 6.5 26 Noroeste 47 Noroeste 0 -- -- 80
2020-03-04 07:00:00 5 15 Oeste 24 Noroeste 0 -- -- 79
2020-03-04 06:00:00 5.1 13 Noroeste 34 Noroeste 0 -- -- 78
2020-03-04 05:00:00 5 23 Noroeste 39 Noroeste 0 -- -- 92
2020-03-04 04:00:00 4.9 21 Noroeste 43 Noroeste 0 -- -- 99
2020-03-04 03:00:00 5.1 35 Noroeste 57 Noroeste 0 -- -- 95
2020-03-04 02:00:00 5.9 39 Noroeste 69 Noroeste 0 -- -- 99
2020-03-04 01:00:00 6.4 51 Noroeste 98 Noroeste 0 -- -- 91
2020-03-04 00:00:00 7.2 56 Noroeste 112 Noroeste 0 -- -- 83
2020-03-03 23:00:00 7.8 71 Noroeste 132 Noroeste 0 -- -- 79
2020-03-03 22:00:00 8.9 78 Noroeste 153 Noroeste 0 -- -- 76
2020-03-03 21:00:00 9.8 90 Noroeste 143 Noroeste 0 -- -- 77
2020-03-03 20:00:00 10.5 73 Noroeste 118 Noroeste 0 -- -- 73
2020-03-03 19:00:00 9.1 57 Noroeste 106 Noroeste 0 -- -- 81
2020-03-03 18:00:00 8.8 44 Oeste 105 Oeste 0 -- -- 81
2020-03-03 17:00:00 8.1 42 Oeste 86 Oeste 0 -- -- 84
2020-03-03 16:00:00 7.5 44 Oeste 84 Oeste 0 -- -- 79
2020-03-03 15:00:00 6.2 46 Oeste 80 Oeste 0 -- -- 83
2020-03-03 14:00:00 5.7 35 Oeste 69 Oeste 0 -- -- 82
2020-03-03 13:00:00 6.8 26 Oeste 52 Sudoeste 0 -- -- 66
2020-03-03 12:00:00 6.6 23 Oeste 48 Oeste 0 -- -- 77
2020-03-03 11:00:00 5.1 19 Oeste 48 Noroeste 0 -- -- 74
2020-03-03 10:00:00 5.2 28 Noroeste 61 Noroeste 0 -- -- 81
2020-03-03 09:00:00 4.7 27 Oeste 60 Noroeste 0 -- -- 79
2020-03-03 08:00:00 3.9 35 Noroeste 72 Noroeste 0 -- -- 83
2020-03-03 07:00:00 3.2 46 Noroeste 102 Noroeste 0 -- -- 83
2020-03-03 06:00:00 3.1 59 Noroeste 98 Noroeste 0 -- -- 82
2020-03-03 05:00:00 3 53 Noroeste 86 Noroeste 0 -- -- 84
2020-03-03 04:00:00 3.3 40 Noroeste 104 Noroeste 0 -- -- 89
2020-03-03 03:00:00 3.6 53 Noroeste 92 Noroeste 0 -- -- 86
2020-03-03 02:00:00 3.5 54 Noroeste 95 Noroeste 0 -- -- 85
2020-03-03 01:00:00 3.5 63 Noroeste 112 Noroeste 0 -- -- 81
2020-03-03 00:00:00 3.9 60 Noroeste 120 Noroeste 0 -- -- 78